Asian Infinity — 3EVP3 — position and weather

sailwx.info

Track history (hours):
 
Tides and Currents Weather Stations Pressure Air Temp Water Temp Dewpoint Dewpoint Depression Visibility Wind Speed Wind Dir Waves Ship Positions

Asian Infinity

Last reported at 2016-Jun-26 10:09 UTC. Time now 2016-Jun-26 17:25 UTC.
Position N 31°23' E 121°30'.

Length 104 m; draft 8.3 m.

Type: Cargo ship. MMSI: 351868000.

Date/timePositionNaut miles runAvg speedWind from/ knotsBaromVisibWave heightAir tempDewpointWater temp
2016-Jun-26 10:09N 31°23' E 121°30'3 5.0
2016-Jun-26 09:34N 31°24' E 121°33'  
2016-Jun-22 12:33N 34°34' E 134°49'1312.6
2016-Jun-22 11:34N 34°36' E 135°04'9 9.0
2016-Jun-22 10:34N 34°37' E 135°15'5 5.1
2016-Jun-22 09:32N 34°42' E 135°15'0 0.0
2016-Jun-22 08:32N 34°42' E 135°15'0 0.0
2016-Jun-22 07:26N 34°42' E 135°15'0 0.0
2016-Jun-22 06:26N 34°42' E 135°15'0 0.0
2016-Jun-22 05:32N 34°42' E 135°15'0 0.0
2016-Jun-22 04:32N 34°42' E 135°15'0 0.0
2016-Jun-22 03:26N 34°42' E 135°15'0 0.0
2016-Jun-22 02:32N 34°42' E 135°15'0 0.0
2016-Jun-22 01:26N 34°42' E 135°15'0 0.0
2016-Jun-22 00:32N 34°42' E 135°15'0 0.0
2016-Jun-21 23:32N 34°42' E 135°15'0 0.4
2016-Jun-21 22:33N 34°42' E 135°15'7 6.8
2016-Jun-21 21:33N 34°35' E 135°15'10 9.6
2016-Jun-21 20:34N 34°27' E 135°09'10 9.4
2016-Jun-21 19:30N 34°20' E 135°00'8 8.3
2016-Jun-21 18:34N 34°12' E 134°60'10 9.5
2016-Jun-21 17:32N 34°02' E 135°00'3 2.8
2016-Jun-21 16:34N 34°05' E 134°60'  
2016-Jun-19 12:04N 34°43' E 139°38'1711.2
2016-Jun-19 10:33N 34°50' E 139°57'1010.5
2016-Jun-19 09:33N 34°56' E 140°08'47 9.3
2016-Jun-19 04:33N 35°28' E 140°49'10 9.9
2016-Jun-19 03:33N 35°37' E 140°55'1110.4
2016-Jun-19 02:32N 35°48' E 140°57'10 9.4
2016-Jun-19 01:27N 35°56' E 140°49'6 6.5
2016-Jun-19 00:33N 35°56' E 140°42'2 0.8
2016-Jun-18 22:06N 35°55' E 140°40'0 0.0
2016-Jun-18 21:27N 35°55' E 140°40'0 0.0
2016-Jun-18 20:30N 35°55' E 140°40'0 0.0
2016-Jun-18 19:33N 35°55' E 140°40'0 0.0
2016-Jun-18 18:18N 35°55' E 140°40'0 0.0
2016-Jun-18 17:30N 35°55' E 140°40'0 0.0
2016-Jun-18 16:33N 35°55' E 140°40'0 0.0
2016-Jun-18 15:33N 35°55' E 140°40'0 0.0
2016-Jun-18 14:18N 35°55' E 140°40'0 0.0
2016-Jun-18 13:27N 35°55' E 140°40'0 0.0
2016-Jun-18 12:30N 35°55' E 140°40'0 0.0
2016-Jun-18 11:33N 35°55' E 140°40'0 0.0
2016-Jun-18 10:24N 35°55' E 140°40'0 0.0
2016-Jun-18 09:15N 35°55' E 140°40'0 0.0
2016-Jun-18 08:30N 35°55' E 140°40'0 0.0
2016-Jun-18 01:24N 35°55' E 140°40'0 0.0
2016-Jun-17 23:21N 35°55' E 140°40'0 0.0
2016-Jun-17 22:33N 35°55' E 140°40'0 0.0
2016-Jun-17 21:33N 35°55' E 140°40'0 0.0
2016-Jun-17 20:33N 35°55' E 140°40'0 0.0
2016-Jun-17 19:21N 35°55' E 140°40'0 0.0
2016-Jun-17 18:30N 35°55' E 140°40'0 0.0
2016-Jun-17 17:18N 35°55' E 140°40'0 0.0
2016-Jun-17 16:33N 35°55' E 140°40'0 0.0
2016-Jun-17 15:30N 35°55' E 140°40'0 0.0
2016-Jun-17 14:24N 35°55' E 140°40'0 0.0
2016-Jun-17 13:33N 35°55' E 140°40'0 0.0
2016-Jun-17 12:33N 35°55' E 140°40'0 0.0
2016-Jun-17 11:30N 35°55' E 140°40'0 0.0
2016-Jun-17 10:33N 35°55' E 140°40'0 0.0
2016-Jun-17 09:30N 35°55' E 140°40'0 0.0
2016-Jun-17 08:30N 35°55' E 140°40'0 0.0
2016-Jun-17 07:21N 35°55' E 140°40'0 0.0
2016-Jun-17 06:33N 35°55' E 140°40'0 0.0
2016-Jun-17 05:33N 35°55' E 140°40'1 1.1
2016-Jun-17 04:33N 35°56' E 140°42'7 7.0
2016-Jun-17 03:33N 35°59' E 140°49'  
Track history (hours):
 
Tides and Currents Weather Stations Pressure Air Temp Water Temp Dewpoint Dewpoint Depression Visibility Wind Speed Wind Dir Waves Ship Positions

Asian Infinity

Last reported at 2016-Jun-26 10:09 UTC. Time now 2016-Jun-26 17:25 UTC.
Position N 31°23' E 121°30'.

Length 104 m; draft 8.3 m.

Type: Cargo ship. MMSI: 351868000.

Date/timePositionNaut miles runAvg speedWind from/ knotsBaromVisibWave heightAir tempDewpointWater temp
2016-Jun-26 10:09N 31°23' E 121°30'3 5.0
2016-Jun-26 09:34N 31°24' E 121°33'  
2016-Jun-22 12:33N 34°34' E 134°49'1312.6
2016-Jun-22 11:34N 34°36' E 135°04'9 9.0
2016-Jun-22 10:34N 34°37' E 135°15'5 5.1
2016-Jun-22 09:32N 34°42' E 135°15'0 0.0
2016-Jun-22 08:32N 34°42' E 135°15'0 0.0
2016-Jun-22 07:26N 34°42' E 135°15'0 0.0
2016-Jun-22 06:26N 34°42' E 135°15'0 0.0
2016-Jun-22 05:32N 34°42' E 135°15'0 0.0
2016-Jun-22 04:32N 34°42' E 135°15'0 0.0
2016-Jun-22 03:26N 34°42' E 135°15'0 0.0
2016-Jun-22 02:32N 34°42' E 135°15'0 0.0
2016-Jun-22 01:26N 34°42' E 135°15'0 0.0
2016-Jun-22 00:32N 34°42' E 135°15'0 0.0
2016-Jun-21 23:32N 34°42' E 135°15'0 0.4
2016-Jun-21 22:33N 34°42' E 135°15'7 6.8
2016-Jun-21 21:33N 34°35' E 135°15'10 9.6
2016-Jun-21 20:34N 34°27' E 135°09'10 9.4
2016-Jun-21 19:30N 34°20' E 135°00'8 8.3
2016-Jun-21 18:34N 34°12' E 134°60'10 9.5
2016-Jun-21 17:32N 34°02' E 135°00'3 2.8
2016-Jun-21 16:34N 34°05' E 134°60'  
2016-Jun-19 12:04N 34°43' E 139°38'1711.2
2016-Jun-19 10:33N 34°50' E 139°57'1010.5
2016-Jun-19 09:33N 34°56' E 140°08'47 9.3
2016-Jun-19 04:33N 35°28' E 140°49'10 9.9
2016-Jun-19 03:33N 35°37' E 140°55'1110.4
2016-Jun-19 02:32N 35°48' E 140°57'10 9.4
2016-Jun-19 01:27N 35°56' E 140°49'6 6.5
2016-Jun-19 00:33N 35°56' E 140°42'2 0.8
2016-Jun-18 22:06N 35°55' E 140°40'0 0.0
2016-Jun-18 21:27N 35°55' E 140°40'0 0.0
2016-Jun-18 20:30N 35°55' E 140°40'0 0.0
2016-Jun-18 19:33N 35°55' E 140°40'0 0.0
2016-Jun-18 18:18N 35°55' E 140°40'0 0.0
2016-Jun-18 17:30N 35°55' E 140°40'0 0.0
2016-Jun-18 16:33N 35°55' E 140°40'0 0.0
2016-Jun-18 15:33N 35°55' E 140°40'0 0.0
2016-Jun-18 14:18N 35°55' E 140°40'0 0.0
2016-Jun-18 13:27N 35°55' E 140°40'0 0.0
2016-Jun-18 12:30N 35°55' E 140°40'0 0.0
2016-Jun-18 11:33N 35°55' E 140°40'0 0.0
2016-Jun-18 10:24N 35°55' E 140°40'0 0.0
2016-Jun-18 09:15N 35°55' E 140°40'0 0.0
2016-Jun-18 08:30N 35°55' E 140°40'0 0.0
2016-Jun-18 01:24N 35°55' E 140°40'0 0.0
2016-Jun-17 23:21N 35°55' E 140°40'0 0.0
2016-Jun-17 22:33N 35°55' E 140°40'0 0.0
2016-Jun-17 21:33N 35°55' E 140°40'0 0.0
2016-Jun-17 20:33N 35°55' E 140°40'0 0.0
2016-Jun-17 19:21N 35°55' E 140°40'0 0.0
2016-Jun-17 18:30N 35°55' E 140°40'0 0.0
2016-Jun-17 17:18N 35°55' E 140°40'0 0.0
2016-Jun-17 16:33N 35°55' E 140°40'0 0.0
2016-Jun-17 15:30N 35°55' E 140°40'0 0.0
2016-Jun-17 14:24N 35°55' E 140°40'0 0.0
2016-Jun-17 13:33N 35°55' E 140°40'0 0.0
2016-Jun-17 12:33N 35°55' E 140°40'0 0.0
2016-Jun-17 11:30N 35°55' E 140°40'0 0.0
2016-Jun-17 10:33N 35°55' E 140°40'0 0.0
2016-Jun-17 09:30N 35°55' E 140°40'0 0.0
2016-Jun-17 08:30N 35°55' E 140°40'0 0.0
2016-Jun-17 07:21N 35°55' E 140°40'0 0.0
2016-Jun-17 06:33N 35°55' E 140°40'0 0.0
2016-Jun-17 05:33N 35°55' E 140°40'1 1.1
2016-Jun-17 04:33N 35°56' E 140°42'7 7.0
2016-Jun-17 03:33N 35°59' E 140°49'  

Dump ship's entire track history